Aérodrome :
LOGIN :

S'inscrire | Disclaimer

   EN    FR    IT 

 










Légende :    VFR   VFR Marginal   IFR   IFR Intensif   IFR Très Intensif
Visi : 
Plafond : 
>= 8 km
>= 3000ft
5 à 8 km
1000 à 3000 ft
1500m à 5 km
500 à 1000 ft
800 à 1500m
200 à 500 ft
< 800m
< 200 ft
Symboles :   Orages  Brouillard  Fortes neiges  Fortes précipitations  Vent > 20 kt
SIGMETs :   Divers  Orages  Givrage  Turbulence  Onde Orograph.  Cendres Volcan.






- Altitude de l'aérodrome : 209 ft
- Code IATA : CLY


LFKC - Calvi

DERNIER METAR :
  • 131430Z AUTO 21009KT CAVOK 15/04 Q1001 NOSIG

METARs EXPIRÉS :
  • 131400Z AUTO 22008KT 180V260 CAVOK 16/05 Q1001 NOSIG
  • 131330Z AUTO 23010KT 200V260 CAVOK 16/04 Q1001 NOSIG
  • 131300Z AUTO 21014KT CAVOK 15/03 Q1001 TEMPO 21015G25KT
  • 131230Z AUTO 21016KT 180V240 CAVOK 15/05 Q1001 TEMPO 21015G25KT
  • 131200Z AUTO 20017KT 170V230 CAVOK 15/04 Q1000 TEMPO 21015G25KT
  • 131130Z AUTO 21019G29KT 9999 FEW048 15/04 Q1000 NOSIG

TAF TAF LFKC
Valide du 13 à 09h jusqu'au 14 à 09h UTC


130800Z 1309/1409 21015KT CAVOK TX16/1312Z TN07/1403Z
TEMPO 1310/1314 21015G25KT
BECMG 1317/1318 19006KT
ATIS : +33 4 95 65 82 49



MET'MAP, la Météo Aéronautique d'un coup d'oeil ! - Copyright ORBIFLY Décembre 2007 - Disclaimer

ORBIFLY MET'MAP TEAM :

Programmation & Développement : Alexandra Zaïnal
Conception & Développement : Baudouin d'Aumeries
Co-Programmation & Développement : Marc-Olivier Méhu
Soutien technique & logistique : Manuel Goepfert

Contact : metmap@orbifly.com




SOURCES & CREDITS :

   NOAA